Time,TemperatureF,DewpointF,PressureIn,WindDirection,WindDirectionDegrees,WindSpeedMPH,WindSpeedGustMPH,Humidity,HourlyPrecipIn,Conditions,Clouds,dailyrainin,SolarRadiationWatts/m^2,SoftwareType,DateUTC
2013-08-03 00:03:00,58.0,56.6,30.11,SSE,155,0.0,0.0,95,0.00,,,0.00,0,Wunderground v.1.15,2013-08-03 07:03:00,
2013-08-03 00:08:00,58.0,56.6,30.11,SSE,155,0.0,0.0,95,0.00,,,0.00,0,Wunderground v.1.15,2013-08-03 07:08:00,
2013-08-03 00:13:00,58.0,56.6,30.11,SSE,155,0.0,0.0,95,0.00,,,0.00,0,Wunderground v.1.15,2013-08-03 07:13:00,
2013-08-03 00:18:00,58.0,56.6,30.11,SSE,155,0.0,0.0,95,0.00,,,0.00,0,Wunderground v.1.15,2013-08-03 07:18:00,
2013-08-03 00:24:00,58.0,56.6,30.11,SSE,155,0.0,0.0,95,0.00,,,0.00,0,Wunderground v.1.15,2013-08-03 07:24:00,
2013-08-03 00:29:00,58.0,56.6,30.11,SSE,155,0.0,0.0,95,0.00,,,0.00,0,Wunderground v.1.15,2013-08-03 07:29:00,
2013-08-03 00:35:00,58.0,56.6,30.11,SSE,155,0.0,0.0,95,0.00,,,0.00,0,Wunderground v.1.15,2013-08-03 07:35:00,
2013-08-03 00:40:00,58.0,56.6,30.11,SSE,155,0.0,0.0,95,0.00,,,0.00,0,Wunderground v.1.15,2013-08-03 07:40:00,
2013-08-03 00:45:00,58.0,56.6,30.11,SSE,155,0.0,0.0,95,0.00,,,0.00,0,Wunderground v.1.15,2013-08-03 07:45:00,
2013-08-03 00:50:00,57.8,56.4,30.11,SSE,155,0.0,0.0,95,0.00,,,0.00,0,Wunderground v.1.15,2013-08-03 07:50:00,
2013-08-03 00:55:00,57.8,56.4,30.11,SSE,155,0.0,0.0,95,0.00,,,0.00,0,Wunderground v.1.15,2013-08-03 07:55:00,
2013-08-03 01:01:00,57.8,56.4,30.11,SSE,155,0.0,0.0,95,0.00,,,0.00,0,Wunderground v.1.15,2013-08-03 08:01:00,
2013-08-03 01:06:00,57.8,56.4,30.11,SSE,155,0.0,0.0,95,0.00,,,0.00,0,Wunderground v.1.15,2013-08-03 08:06:00,
2013-08-03 01:11:00,57.8,56.4,30.11,SSE,155,0.0,0.0,95,0.00,,,0.00,0,Wunderground v.1.15,2013-08-03 08:11:00,
2013-08-03 01:16:00,57.8,56.4,30.11,SSE,155,0.0,0.0,95,0.00,,,0.00,0,Wunderground v.1.15,2013-08-03 08:16:00,
2013-08-03 01:21:00,57.8,56.4,30.11,SSE,155,0.0,0.0,95,0.00,,,0.00,0,Wunderground v.1.15,2013-08-03 08:21:00,
2013-08-03 01:26:00,58.0,56.6,30.11,SSE,155,0.0,0.0,95,0.00,,,0.00,0,Wunderground v.1.15,2013-08-03 08:26:00,
2013-08-03 01:32:00,58.0,56.6,30.11,SSE,155,0.0,0.0,95,0.00,,,0.00,0,Wunderground v.1.15,2013-08-03 08:32:00,
2013-08-03 01:37:00,58.0,56.6,30.11,SSE,155,0.0,0.0,95,0.00,,,0.00,0,Wunderground v.1.15,2013-08-03 08:37:00,
2013-08-03 01:42:00,58.0,56.6,30.11,SSE,155,0.0,0.0,95,0.00,,,0.00,0,Wunderground v.1.15,2013-08-03 08:42:00,
2013-08-03 01:47:00,58.0,56.6,30.10,SSE,155,0.0,0.0,95,0.00,,,0.00,0,Wunderground v.1.15,2013-08-03 08:47:00,
2013-08-03 01:52:00,58.0,56.6,30.10,SSE,155,0.0,0.0,95,0.00,,,0.00,0,Wunderground v.1.15,2013-08-03 08:52:00,
2013-08-03 01:57:00,58.0,56.6,30.10,SSE,155,0.0,0.0,95,0.00,,,0.00,0,Wunderground v.1.15,2013-08-03 08:57:00,
2013-08-03 02:02:00,58.1,56.7,30.10,SSE,155,0.0,0.0,95,0.00,,,0.00,0,Wunderground v.1.15,2013-08-03 09:02:00,
2013-08-03 02:07:00,58.1,56.7,30.10,SSE,155,0.0,0.0,95,0.00,,,0.00,0,Wunderground v.1.15,2013-08-03 09:07:00,
2013-08-03 02:12:00,58.1,56.7,30.10,SSE,155,0.0,0.0,95,0.00,,,0.00,0,Wunderground v.1.15,2013-08-03 09:12:00,
2013-08-03 02:17:00,58.1,56.7,30.10,SSE,155,0.0,0.0,95,0.00,,,0.00,0,Wunderground v.1.15,2013-08-03 09:17:00,
2013-08-03 02:22:00,58.1,56.7,30.10,SSE,155,0.0,0.0,95,0.00,,,0.00,0,Wunderground v.1.15,2013-08-03 09:22:00,
2013-08-03 02:27:00,58.1,57.0,30.10,SSE,155,0.0,0.0,96,0.00,,,0.00,0,Wunderground v.1.15,2013-08-03 09:27:00,
2013-08-03 02:32:00,58.3,57.2,30.10,SSE,155,0.0,0.0,96,0.00,,,0.00,0,Wunderground v.1.15,2013-08-03 09:32:00,
2013-08-03 02:37:00,58.1,56.7,30.10,SSE,155,0.0,0.0,95,0.00,,,0.00,0,Wunderground v.1.15,2013-08-03 09:37:00,
2013-08-03 02:42:00,58.1,56.7,30.10,SSE,155,0.0,0.0,95,0.00,,,0.00,0,Wunderground v.1.15,2013-08-03 09:42:00,
2013-08-03 02:48:00,58.1,56.7,30.10,SSE,155,0.0,0.0,95,0.00,,,0.00,0,Wunderground v.1.15,2013-08-03 09:48:00,
2013-08-03 02:53:00,58.0,56.6,30.10,SSE,155,0.0,0.0,95,0.00,,,0.00,0,Wunderground v.1.15,2013-08-03 09:53:00,
2013-08-03 02:58:00,58.0,56.9,30.10,SSE,155,0.0,0.0,96,0.00,,,0.00,0,Wunderground v.1.15,2013-08-03 09:58:00,
2013-08-03 03:02:00,58.0,56.6,30.10,SSE,155,0.0,0.0,95,0.00,,,0.00,0,Wunderground v.1.15,2013-08-03 10:02:00,
2013-08-03 03:08:00,57.8,56.7,30.10,SSE,155,0.0,1.0,96,0.00,,,0.00,0,Wunderground v.1.15,2013-08-03 10:08:00,
2013-08-03 03:13:00,57.8,56.7,30.10,SSE,155,0.0,0.0,96,0.00,,,0.00,0,Wunderground v.1.15,2013-08-03 10:13:00,
2013-08-03 03:18:00,57.8,56.7,30.09,SSE,155,0.0,1.0,96,0.00,,,0.00,0,Wunderground v.1.15,2013-08-03 10:18:00,
2013-08-03 03:23:00,58.0,56.9,30.09,SSE,155,0.0,0.0,96,0.00,,,0.00,0,Wunderground v.1.15,2013-08-03 10:23:00,
2013-08-03 03:28:00,58.0,56.9,30.09,SSE,155,0.0,1.0,96,0.00,,,0.00,0,Wunderground v.1.15,2013-08-03 10:28:00,
2013-08-03 03:33:00,58.0,56.9,30.09,SSE,155,1.0,1.0,96,0.00,,,0.00,0,Wunderground v.1.15,2013-08-03 10:33:00,
2013-08-03 03:38:00,58.1,57.0,30.09,SSE,155,0.0,1.0,96,0.00,,,0.00,0,Wunderground v.1.15,2013-08-03 10:38:00,
2013-08-03 03:43:00,58.1,57.0,30.09,SSE,155,0.0,1.0,96,0.00,,,0.00,0,Wunderground v.1.15,2013-08-03 10:43:00,
2013-08-03 03:48:00,58.1,57.0,30.09,SSE,155,0.0,1.0,96,0.00,,,0.00,0,Wunderground v.1.15,2013-08-03 10:48:00,
2013-08-03 03:53:00,58.1,57.0,30.09,SSE,155,0.0,1.0,96,0.00,,,0.00,0,Wunderground v.1.15,2013-08-03 10:53:00,
2013-08-03 03:58:00,58.1,57.0,30.09,SSE,155,0.0,1.0,96,0.00,,,0.00,0,Wunderground v.1.15,2013-08-03 10:58:00,
2013-08-03 04:03:00,58.1,57.0,30.09,SSE,155,0.0,1.0,96,0.00,,,0.00,0,Wunderground v.1.15,2013-08-03 11:03:00,
2013-08-03 04:08:00,58.1,57.0,30.09,SSE,155,0.0,1.0,96,0.00,,,0.00,0,Wunderground v.1.15,2013-08-03 11:08:00,
2013-08-03 04:13:00,58.1,57.0,30.09,SSE,155,0.0,0.0,96,0.00,,,0.00,0,Wunderground v.1.15,2013-08-03 11:13:00,
2013-08-03 04:18:00,58.1,57.0,30.09,SSE,155,0.0,0.0,96,0.00,,,0.00,0,Wunderground v.1.15,2013-08-03 11:18:00,
2013-08-03 04:23:00,58.1,57.0,30.09,SSE,155,0.0,0.0,96,0.00,,,0.00,0,Wunderground v.1.15,2013-08-03 11:23:00,
2013-08-03 04:28:00,58.1,57.0,30.09,SSE,155,0.0,1.0,96,0.00,,,0.00,0,Wunderground v.1.15,2013-08-03 11:28:00,
2013-08-03 04:33:00,58.1,57.0,30.09,SSE,155,0.0,0.0,96,0.00,,,0.00,0,Wunderground v.1.15,2013-08-03 11:33:00,
2013-08-03 04:38:00,58.1,57.0,30.09,SSE,155,0.0,0.0,96,0.00,,,0.00,0,Wunderground v.1.15,2013-08-03 11:38:00,
2013-08-03 04:43:00,58.0,56.9,30.09,SSE,155,0.0,0.0,96,0.00,,,0.00,0,Wunderground v.1.15,2013-08-03 11:43:00,
2013-08-03 04:48:00,58.0,56.9,30.10,SSE,155,0.0,0.0,96,0.00,,,0.00,0,Wunderground v.1.15,2013-08-03 11:48:00,
2013-08-03 04:53:00,57.8,56.7,30.10,SSE,155,0.0,0.0,96,0.00,,,0.00,0,Wunderground v.1.15,2013-08-03 11:53:00,
2013-08-03 04:58:00,57.8,56.7,30.10,SSE,155,0.0,0.0,96,0.00,,,0.00,0,Wunderground v.1.15,2013-08-03 11:58:00,
2013-08-03 05:03:00,57.6,56.5,30.10,SSE,155,0.0,0.0,96,0.00,,,0.00,0,Wunderground v.1.15,2013-08-03 12:03:00,
2013-08-03 05:08:00,57.6,56.5,30.10,SSE,155,0.0,0.0,96,0.00,,,0.00,0,Wunderground v.1.15,2013-08-03 12:08:00,
2013-08-03 05:13:00,57.6,56.5,30.10,SSE,155,0.0,0.0,96,0.00,,,0.00,0,Wunderground v.1.15,2013-08-03 12:13:00,
2013-08-03 05:18:00,57.8,56.7,30.10,SSE,155,0.0,0.0,96,0.00,,,0.00,0,Wunderground v.1.15,2013-08-03 12:18:00,
2013-08-03 05:23:00,57.8,56.7,30.10,SSE,155,0.0,0.0,96,0.00,,,0.00,0,Wunderground v.1.15,2013-08-03 12:23:00,
2013-08-03 05:28:00,57.8,56.7,30.10,SSE,155,0.0,0.0,96,0.00,,,0.00,0,Wunderground v.1.15,2013-08-03 12:28:00,
2013-08-03 05:33:00,58.0,56.9,30.10,SSE,155,0.0,0.0,96,0.00,,,0.00,0,Wunderground v.1.15,2013-08-03 12:33:00,
2013-08-03 05:38:00,58.0,56.9,30.10,SSE,155,0.0,0.0,96,0.00,,,0.00,0,Wunderground v.1.15,2013-08-03 12:38:00,
2013-08-03 05:43:00,58.0,56.9,30.10,SSE,155,0.0,0.0,96,0.00,,,0.00,0,Wunderground v.1.15,2013-08-03 12:43:00,
2013-08-03 05:48:00,58.0,56.9,30.10,SSE,155,0.0,0.0,96,0.00,,,0.00,0,Wunderground v.1.15,2013-08-03 12:48:00,
2013-08-03 05:53:00,58.0,56.9,30.10,SSE,155,0.0,0.0,96,0.00,,,0.00,0,Wunderground v.1.15,2013-08-03 12:53:00,
2013-08-03 05:58:00,58.0,56.9,30.10,SSE,155,0.0,0.0,96,0.00,,,0.00,0,Wunderground v.1.15,2013-08-03 12:58:00,
2013-08-03 06:03:00,58.1,57.0,30.11,SSE,155,0.0,0.0,96,0.00,,,0.00,0,Wunderground v.1.15,2013-08-03 13:03:00,
2013-08-03 06:08:00,58.1,57.0,30.11,SSE,155,0.0,0.0,96,0.00,,,0.00,0,Wunderground v.1.15,2013-08-03 13:08:00,
2013-08-03 06:13:00,58.1,57.0,30.11,SSE,155,0.0,0.0,96,0.00,,,0.00,0,Wunderground v.1.15,2013-08-03 13:13:00,
2013-08-03 06:18:00,58.1,57.0,30.11,SSE,155,0.0,0.0,96,0.00,,,0.00,5,Wunderground v.1.15,2013-08-03 13:18:00,
2013-08-03 06:23:00,58.3,57.2,30.11,SSE,155,0.0,0.0,96,0.00,,,0.00,7,Wunderground v.1.15,2013-08-03 13:23:00,
2013-08-03 06:28:00,58.3,57.2,30.11,SSE,155,0.0,0.0,96,0.00,,,0.00,11,Wunderground v.1.15,2013-08-03 13:28:00,
2013-08-03 06:33:00,58.1,57.0,30.11,SSE,155,0.0,0.0,96,0.00,,,0.00,12,Wunderground v.1.15,2013-08-03 13:33:00,
2013-08-03 06:38:00,58.1,57.0,30.11,SSE,155,0.0,0.0,96,0.00,,,0.00,12,Wunderground v.1.15,2013-08-03 13:38:00,
2013-08-03 06:43:00,58.3,57.2,30.11,SSE,155,0.0,0.0,96,0.00,,,0.00,16,Wunderground v.1.15,2013-08-03 13:43:00,
2013-08-03 06:48:00,58.3,57.2,30.11,SSE,155,0.0,0.0,96,0.00,,,0.00,19,Wunderground v.1.15,2013-08-03 13:48:00,
2013-08-03 06:53:00,58.3,57.2,30.11,SSE,155,0.0,0.0,96,0.00,,,0.00,19,Wunderground v.1.15,2013-08-03 13:53:00,
2013-08-03 06:58:00,58.3,57.2,30.11,SSE,155,0.0,0.0,96,0.00,,,0.00,21,Wunderground v.1.15,2013-08-03 13:58:00,
2013-08-03 07:03:00,58.3,57.2,30.11,SSE,155,0.0,0.0,96,0.00,,,0.00,23,Wunderground v.1.15,2013-08-03 14:03:00,
2013-08-03 07:08:00,58.3,57.2,30.11,SSE,155,0.0,0.0,96,0.00,,,0.00,25,Wunderground v.1.15,2013-08-03 14:08:00,
2013-08-03 07:13:00,58.3,57.2,30.11,SSE,155,0.0,0.0,96,0.00,,,0.00,25,Wunderground v.1.15,2013-08-03 14:13:00,
2013-08-03 07:18:00,58.3,57.2,30.11,NE,52,2.0,3.0,96,0.00,,,0.00,23,Wunderground v.1.15,2013-08-03 14:18:00,
2013-08-03 07:23:00,58.3,57.2,30.11,NE,52,0.0,2.0,96,0.00,,,0.00,25,Wunderground v.1.15,2013-08-03 14:23:00,
2013-08-03 07:28:00,58.3,57.2,30.11,North,360,0.0,3.0,96,0.00,,,0.00,28,Wunderground v.1.15,2013-08-03 14:28:00,
2013-08-03 07:33:00,58.3,57.2,30.11,North,360,0.0,2.0,96,0.00,,,0.00,30,Wunderground v.1.15,2013-08-03 14:33:00,
2013-08-03 07:38:00,58.3,57.2,30.11,North,360,0.0,2.0,96,0.00,,,0.00,33,Wunderground v.1.15,2013-08-03 14:38:00,
2013-08-03 07:43:00,58.3,57.2,30.11,North,360,0.0,1.0,96,0.00,,,0.00,42,Wunderground v.1.15,2013-08-03 14:43:00,
2013-08-03 07:48:00,58.3,57.2,30.12,North,360,0.0,1.0,96,0.00,,,0.00,58,Wunderground v.1.15,2013-08-03 14:48:00,
2013-08-03 07:53:00,58.3,57.2,30.12,North,360,0.0,2.0,96,0.00,,,0.00,62,Wunderground v.1.15,2013-08-03 14:53:00,
2013-08-03 07:58:00,58.3,57.2,30.12,North,360,1.0,3.0,96,0.00,,,0.00,72,Wunderground v.1.15,2013-08-03 14:58:00,
2013-08-03 08:03:00,58.4,57.3,30.12,North,360,1.0,3.0,96,0.00,,,0.00,84,Wunderground v.1.15,2013-08-03 15:03:00,
2013-08-03 08:08:00,58.4,57.3,30.12,North,360,0.0,3.0,96,0.00,,,0.00,95,Wunderground v.1.15,2013-08-03 15:08:00,
2013-08-03 08:13:00,58.6,57.5,30.12,North,360,0.0,1.0,96,0.00,,,0.00,107,Wunderground v.1.15,2013-08-03 15:13:00,
2013-08-03 08:18:00,58.7,57.9,30.12,North,360,0.0,1.0,97,0.00,,,0.00,104,Wunderground v.1.15,2013-08-03 15:18:00,
2013-08-03 08:24:00,58.9,58.1,30.12,North,360,0.0,1.0,97,0.00,,,0.00,107,Wunderground v.1.15,2013-08-03 15:24:00,
2013-08-03 08:29:00,59.0,58.2,30.12,North,360,1.0,2.0,97,0.00,,,0.00,130,Wunderground v.1.15,2013-08-03 15:29:00,
2013-08-03 08:34:00,59.0,57.9,30.12,NNE,26,2.0,3.0,96,0.00,,,0.00,109,Wunderground v.1.15,2013-08-03 15:34:00,
2013-08-03 08:39:00,58.9,57.8,30.12,NNE,26,1.0,4.0,96,0.00,,,0.00,135,Wunderground v.1.15,2013-08-03 15:39:00,
2013-08-03 08:44:00,58.9,57.8,30.12,NNE,26,0.0,1.0,96,0.00,,,0.00,132,Wunderground v.1.15,2013-08-03 15:44:00,
2013-08-03 08:49:00,58.9,57.8,30.12,NNE,26,0.0,1.0,96,0.00,,,0.00,139,Wunderground v.1.15,2013-08-03 15:49:00,
2013-08-03 08:54:00,58.7,57.6,30.12,NNE,26,0.0,1.0,96,0.00,,,0.00,181,Wunderground v.1.15,2013-08-03 15:54:00,
2013-08-03 08:59:00,58.7,57.6,30.12,NNE,26,0.0,2.0,96,0.00,,,0.00,211,Wunderground v.1.15,2013-08-03 15:59:00,
2013-08-03 09:04:00,59.2,58.3,30.12,NNE,26,0.0,1.0,97,0.00,,,0.00,185,Wunderground v.1.15,2013-08-03 16:04:00,
2013-08-03 09:09:00,59.3,58.2,30.12,NNE,26,0.0,2.0,96,0.00,,,0.00,202,Wunderground v.1.15,2013-08-03 16:09:00,
2013-08-03 09:14:00,59.3,58.2,30.12,NNE,26,3.0,3.0,96,0.00,,,0.00,244,Wunderground v.1.15,2013-08-03 16:14:00,
2013-08-03 09:19:00,59.3,58.2,30.12,NNE,26,2.0,3.0,96,0.00,,,0.00,248,Wunderground v.1.15,2013-08-03 16:19:00,
2013-08-03 09:23:00,59.0,57.6,30.12,North,11,0.0,4.0,95,0.00,,,0.00,267,Wunderground v.1.15,2013-08-03 16:23:00,
2013-08-03 09:29:00,59.2,58.1,30.12,NNE,12,1.0,4.0,96,0.00,,,0.00,276,Wunderground v.1.15,2013-08-03 16:29:00,
2013-08-03 09:33:00,59.2,58.1,30.12,NNE,14,0.0,3.0,96,0.00,,,0.00,320,Wunderground v.1.15,2013-08-03 16:33:00,
2013-08-03 09:38:00,59.8,58.7,30.12,NNE,33,2.0,3.0,96,0.00,,,0.00,432,Wunderground v.1.15,2013-08-03 16:38:00,
2013-08-03 09:44:00,60.4,59.3,30.12,NNE,32,2.0,4.0,96,0.00,,,0.00,373,Wunderground v.1.15,2013-08-03 16:44:00,
2013-08-03 09:49:00,60.4,59.0,30.12,NNE,32,2.0,4.0,95,0.00,,,0.00,461,Wunderground v.1.15,2013-08-03 16:49:00,
2013-08-03 09:54:00,60.9,59.8,30.12,NNE,32,3.0,4.0,96,0.00,,,0.00,448,Wunderground v.1.15,2013-08-03 16:54:00,
2013-08-03 09:58:00,61.0,59.6,30.12,NNE,32,3.0,4.0,95,0.00,,,0.00,399,Wunderground v.1.15,2013-08-03 16:58:00,
2013-08-03 10:03:00,61.3,59.9,30.12,NNE,32,5.0,5.0,95,0.00,,,0.00,687,Wunderground v.1.15,2013-08-03 17:03:00,
2013-08-03 10:09:00,61.8,60.1,30.12,NE,47,2.0,5.0,94,0.00,,,0.00,659,Wunderground v.1.15,2013-08-03 17:09:00,
2013-08-03 10:13:00,61.8,59.8,30.12,NE,38,2.0,5.0,93,0.00,,,0.00,668,Wunderground v.1.15,2013-08-03 17:13:00,
2013-08-03 10:19:00,62.1,59.7,30.12,NE,41,3.0,5.0,92,0.00,,,0.00,666,Wunderground v.1.15,2013-08-03 17:19:00,
2013-08-03 10:24:00,62.3,59.3,30.12,NE,37,4.0,5.0,90,0.00,,,0.00,677,Wunderground v.1.15,2013-08-03 17:24:00,
2013-08-03 10:29:00,62.6,59.3,30.12,NE,43,3.0,5.0,89,0.00,,,0.00,687,Wunderground v.1.15,2013-08-03 17:29:00,
2013-08-03 10:34:00,62.9,59.6,30.11,NE,36,3.0,5.0,89,0.00,,,0.00,701,Wunderground v.1.15,2013-08-03 17:34:00,
2013-08-03 10:39:00,63.4,59.8,30.11,NE,36,3.0,5.0,88,0.00,,,0.00,761,Wunderground v.1.15,2013-08-03 17:39:00,
2013-08-03 10:44:00,63.4,59.5,30.11,NE,51,2.0,5.0,87,0.00,,,0.00,698,Wunderground v.1.15,2013-08-03 17:44:00,
2013-08-03 10:49:00,63.7,59.1,30.11,NE,42,4.0,5.0,85,0.00,,,0.00,747,Wunderground v.1.15,2013-08-03 17:49:00,
2013-08-03 10:54:00,63.4,58.5,30.11,NE,51,4.0,6.0,84,0.00,,,0.00,974,Wunderground v.1.15,2013-08-03 17:54:00,
2013-08-03 10:59:00,63.5,58.6,30.11,NE,53,5.0,7.0,84,0.00,,,0.00,810,Wunderground v.1.15,2013-08-03 17:59:00,
2013-08-03 11:03:00,63.7,58.8,30.11,NNE,28,2.0,4.0,84,0.00,,,0.00,668,Wunderground v.1.15,2013-08-03 18:03:00,
2013-08-03 11:09:00,63.7,59.1,30.11,NNE,17,3.0,4.0,85,0.00,,,0.00,761,Wunderground v.1.15,2013-08-03 18:09:00,
2013-08-03 11:13:00,63.9,59.0,30.11,NNW,347,5.0,6.0,84,0.00,,,0.00,768,Wunderground v.1.15,2013-08-03 18:13:00,
2013-08-03 11:19:00,64.0,59.1,30.11,NNE,33,1.0,6.0,84,0.00,,,0.00,775,Wunderground v.1.15,2013-08-03 18:19:00,
2013-08-03 11:24:00,64.5,59.6,30.11,NE,46,2.0,5.0,84,0.00,,,0.00,777,Wunderground v.1.15,2013-08-03 18:24:00,
2013-08-03 11:29:00,64.8,59.5,30.11,NE,40,3.0,6.0,83,0.00,,,0.00,793,Wunderground v.1.15,2013-08-03 18:29:00,
2013-08-03 11:34:00,65.0,59.4,30.11,NNW,339,3.0,4.0,82,0.00,,,0.00,789,Wunderground v.1.15,2013-08-03 18:34:00,
2013-08-03 11:39:00,64.8,58.5,30.11,NNE,19,2.0,5.0,80,0.00,,,0.00,802,Wunderground v.1.15,2013-08-03 18:39:00,
2013-08-03 11:44:00,64.8,58.5,30.11,NNE,15,2.0,4.0,80,0.00,,,0.00,835,Wunderground v.1.15,2013-08-03 18:44:00,
2013-08-03 11:49:00,64.8,58.8,30.11,NNE,32,3.0,4.0,81,0.00,,,0.00,969,Wunderground v.1.15,2013-08-03 18:49:00,
2013-08-03 11:54:00,64.7,58.0,30.11,NNE,29,2.0,3.0,79,0.00,,,0.00,969,Wunderground v.1.15,2013-08-03 18:54:00,
2013-08-03 11:59:00,64.7,58.0,30.11,NNE,29,2.0,3.0,79,0.00,,,0.00,951,Wunderground v.1.15,2013-08-03 18:59:00,
2013-08-03 12:04:00,64.3,57.3,30.11,NNE,17,0.0,4.0,78,0.00,,,0.00,371,Wunderground v.1.15,2013-08-03 19:04:00,
2013-08-03 12:09:00,64.2,57.5,30.11,NNE,24,1.0,5.0,79,0.00,,,0.00,969,Wunderground v.1.15,2013-08-03 19:09:00,
2013-08-03 12:14:00,64.3,58.3,30.11,NNE,22,1.0,2.0,81,0.00,,,0.00,889,Wunderground v.1.15,2013-08-03 19:14:00,
2013-08-03 12:19:00,64.7,58.4,30.11,NNE,20,1.0,3.0,80,0.00,,,0.00,889,Wunderground v.1.15,2013-08-03 19:19:00,
2013-08-03 12:24:00,64.8,58.8,30.11,NNE,16,2.0,4.0,81,0.00,,,0.00,837,Wunderground v.1.15,2013-08-03 19:24:00,
2013-08-03 12:29:00,64.7,58.0,30.11,NE,42,2.0,5.0,79,0.00,,,0.00,849,Wunderground v.1.15,2013-08-03 19:29:00,
2013-08-03 12:34:00,65.0,59.4,30.11,NE,46,2.0,5.0,82,0.00,,,0.00,851,Wunderground v.1.15,2013-08-03 19:34:00,
2013-08-03 12:39:00,65.2,59.2,30.11,NE,46,3.0,6.0,81,0.00,,,0.00,853,Wunderground v.1.15,2013-08-03 19:39:00,
2013-08-03 12:44:00,65.2,59.2,30.11,NE,46,4.0,6.0,81,0.00,,,0.00,858,Wunderground v.1.15,2013-08-03 19:44:00,
2013-08-03 12:49:00,65.5,59.5,30.11,NNE,32,3.0,6.0,81,0.00,,,0.00,860,Wunderground v.1.15,2013-08-03 19:49:00,
2013-08-03 12:54:00,65.3,58.6,30.11,NE,39,3.0,6.0,79,0.00,,,0.00,860,Wunderground v.1.15,2013-08-03 19:54:00,
2013-08-03 12:59:00,65.5,59.5,30.11,NE,39,1.0,6.0,81,0.00,,,0.00,860,Wunderground v.1.15,2013-08-03 19:59:00,
2013-08-03 13:04:00,65.2,58.2,30.11,NNE,26,3.0,5.0,78,0.00,,,0.00,860,Wunderground v.1.15,2013-08-03 20:04:00,
2013-08-03 13:09:00,65.2,58.9,30.11,NNE,32,4.0,5.0,80,0.00,,,0.00,863,Wunderground v.1.15,2013-08-03 20:09:00,
2013-08-03 13:14:00,65.3,59.3,30.11,NE,35,4.0,6.0,81,0.00,,,0.00,861,Wunderground v.1.15,2013-08-03 20:14:00,
2013-08-03 13:19:00,65.2,58.5,30.11,NNE,28,3.0,6.0,79,0.00,,,0.00,861,Wunderground v.1.15,2013-08-03 20:19:00,
2013-08-03 13:24:00,65.0,59.0,30.11,NE,44,2.0,5.0,81,0.00,,,0.00,863,Wunderground v.1.15,2013-08-03 20:24:00,
2013-08-03 13:29:00,65.2,58.9,30.11,NE,49,3.0,5.0,80,0.00,,,0.00,863,Wunderground v.1.15,2013-08-03 20:29:00,
2013-08-03 13:34:00,65.6,59.6,30.11,NE,40,2.0,5.0,81,0.00,,,0.00,861,Wunderground v.1.15,2013-08-03 20:34:00,
2013-08-03 13:39:00,66.1,59.7,30.11,NE,47,5.0,5.0,80,0.00,,,0.00,860,Wunderground v.1.15,2013-08-03 20:39:00,
2013-08-03 13:44:00,66.4,58.6,30.11,ENE,67,6.0,6.0,76,0.00,,,0.00,856,Wunderground v.1.15,2013-08-03 20:44:00,
2013-08-03 13:49:00,66.4,59.0,30.11,NE,44,4.0,6.0,77,0.00,,,0.00,854,Wunderground v.1.15,2013-08-03 20:49:00,
2013-08-03 13:54:00,66.4,59.0,30.11,NE,36,3.0,6.0,77,0.00,,,0.00,853,Wunderground v.1.15,2013-08-03 20:54:00,
2013-08-03 13:59:00,66.3,58.5,30.11,NE,49,4.0,6.0,76,0.00,,,0.00,849,Wunderground v.1.15,2013-08-03 20:59:00,
2013-08-03 14:04:00,66.1,59.0,30.11,NE,44,3.0,5.0,78,0.00,,,0.00,846,Wunderground v.1.15,2013-08-03 21:04:00,
2013-08-03 14:09:00,66.0,58.9,30.11,NNE,24,5.0,5.0,78,0.00,,,0.00,840,Wunderground v.1.15,2013-08-03 21:09:00,
2013-08-03 14:14:00,65.6,58.6,30.11,NE,34,1.0,3.0,78,0.00,,,0.00,833,Wunderground v.1.15,2013-08-03 21:14:00,
2013-08-03 14:19:00,65.6,58.6,30.10,NE,40,3.0,4.0,78,0.00,,,0.00,830,Wunderground v.1.15,2013-08-03 21:19:00,
2013-08-03 14:24:00,65.5,58.5,30.10,NE,40,2.0,4.0,78,0.00,,,0.00,824,Wunderground v.1.15,2013-08-03 21:24:00,
2013-08-03 14:29:00,65.2,58.5,30.10,NE,34,1.0,4.0,79,0.00,,,0.00,817,Wunderground v.1.15,2013-08-03 21:29:00,
2013-08-03 14:34:00,65.2,58.5,30.10,NE,34,0.0,3.0,79,0.00,,,0.00,814,Wunderground v.1.15,2013-08-03 21:34:00,
2013-08-03 14:39:00,65.5,58.5,30.10,NE,34,0.0,3.0,78,0.00,,,0.00,809,Wunderground v.1.15,2013-08-03 21:39:00,
2013-08-03 14:44:00,66.0,58.9,30.10,NE,43,0.0,2.0,78,0.00,,,0.00,803,Wunderground v.1.15,2013-08-03 21:44:00,
2013-08-03 14:49:00,66.6,59.5,30.10,NE,43,1.0,2.0,78,0.00,,,0.00,798,Wunderground v.1.15,2013-08-03 21:49:00,
2013-08-03 14:54:00,66.8,58.6,30.10,NE,43,0.0,2.0,75,0.00,,,0.00,793,Wunderground v.1.15,2013-08-03 21:54:00,
2013-08-03 14:59:00,66.9,58.7,30.10,NE,43,1.0,2.0,75,0.00,,,0.00,786,Wunderground v.1.15,2013-08-03 21:59:00,
2013-08-03 15:04:00,67.1,58.9,30.09,NE,52,1.0,3.0,75,0.00,,,0.00,779,Wunderground v.1.15,2013-08-03 22:04:00,
2013-08-03 15:09:00,67.1,58.9,30.09,NE,52,1.0,3.0,75,0.00,,,0.00,768,Wunderground v.1.15,2013-08-03 22:09:00,
2013-08-03 15:14:00,66.9,59.1,30.09,NE,52,1.0,3.0,76,0.00,,,0.00,761,Wunderground v.1.15,2013-08-03 22:14:00,
2013-08-03 15:19:00,66.9,59.5,30.08,NE,52,3.0,3.0,77,0.00,,,0.00,752,Wunderground v.1.15,2013-08-03 22:19:00,
2013-08-03 15:24:00,66.6,59.2,30.08,NNE,16,2.0,3.0,77,0.00,,,0.00,744,Wunderground v.1.15,2013-08-03 22:24:00,
2013-08-03 15:29:00,66.8,58.6,30.08,NE,38,2.0,4.0,75,0.00,,,0.00,733,Wunderground v.1.15,2013-08-03 22:29:00,
2013-08-03 15:34:00,66.8,58.6,30.08,NE,38,2.0,3.0,75,0.00,,,0.00,722,Wunderground v.1.15,2013-08-03 22:34:00,
2013-08-03 15:39:00,66.4,58.6,30.08,NE,38,1.0,4.0,76,0.00,,,0.00,714,Wunderground v.1.15,2013-08-03 22:39:00,
2013-08-03 15:44:00,66.4,58.6,30.08,NE,38,0.0,2.0,76,0.00,,,0.00,703,Wunderground v.1.15,2013-08-03 22:44:00,
2013-08-03 15:49:00,66.4,58.6,30.08,NE,38,0.0,3.0,76,0.00,,,0.00,691,Wunderground v.1.15,2013-08-03 22:49:00,
2013-08-03 15:54:00,66.6,58.4,30.08,NE,38,0.0,1.0,75,0.00,,,0.00,682,Wunderground v.1.15,2013-08-03 22:54:00,
2013-08-03 15:59:00,66.8,58.6,30.08,NE,38,0.0,2.0,75,0.00,,,0.00,671,Wunderground v.1.15,2013-08-03 22:59:00,
2013-08-03 16:04:00,66.8,58.6,30.08,NE,38,0.0,2.0,75,0.00,,,0.00,659,Wunderground v.1.15,2013-08-03 23:04:00,
2013-08-03 16:09:00,67.1,58.9,30.08,NE,38,0.0,2.0,75,0.00,,,0.00,649,Wunderground v.1.15,2013-08-03 23:09:00,
2013-08-03 16:14:00,67.3,58.3,30.08,NE,38,0.0,1.0,73,0.00,,,0.00,571,Wunderground v.1.15,2013-08-03 23:14:00,
2013-08-03 16:19:00,67.4,58.4,30.07,NE,38,0.0,1.0,73,0.00,,,0.00,47,Wunderground v.1.15,2013-08-03 23:19:00,
2013-08-03 16:24:00,67.3,57.6,30.07,NE,38,1.0,2.0,71,0.00,,,0.00,40,Wunderground v.1.15,2013-08-03 23:24:00,
2013-08-03 16:29:00,67.1,57.8,30.07,NE,38,0.0,2.0,72,0.00,,,0.00,39,Wunderground v.1.15,2013-08-03 23:29:00,
2013-08-03 16:34:00,66.8,57.5,30.07,NE,40,0.0,3.0,72,0.00,,,0.00,40,Wunderground v.1.15,2013-08-03 23:34:00,
2013-08-03 16:39:00,66.3,57.0,30.07,NE,40,0.0,3.0,72,0.00,,,0.00,35,Wunderground v.1.15,2013-08-03 23:39:00,
2013-08-03 16:44:00,66.0,56.7,30.07,NE,40,0.0,1.0,72,0.00,,,0.00,35,Wunderground v.1.15,2013-08-03 23:44:00,
2013-08-03 16:49:00,65.8,56.9,30.07,NE,40,0.0,1.0,73,0.00,,,0.00,33,Wunderground v.1.15,2013-08-03 23:49:00,
2013-08-03 16:54:00,65.6,57.1,30.07,NE,40,0.0,1.0,74,0.00,,,0.00,33,Wunderground v.1.15,2013-08-03 23:54:00,
2013-08-03 16:59:00,65.3,56.8,30.07,NE,40,0.0,2.0,74,0.00,,,0.00,32,Wunderground v.1.15,2013-08-03 23:59:00,
2013-08-03 17:04:00,65.2,56.7,30.06,NE,40,0.0,2.0,74,0.00,,,0.00,32,Wunderground v.1.15,2013-08-04 00:04:00,
2013-08-03 17:09:00,65.0,56.5,30.06,NE,40,3.0,3.0,74,0.00,,,0.00,30,Wunderground v.1.15,2013-08-04 00:09:00,
2013-08-03 17:14:00,65.0,56.5,30.06,NE,40,0.0,3.0,74,0.00,,,0.00,30,Wunderground v.1.15,2013-08-04 00:14:00,
2013-08-03 17:19:00,64.8,56.3,30.06,NE,40,0.0,3.0,74,0.00,,,0.00,30,Wunderground v.1.15,2013-08-04 00:19:00,
2013-08-03 17:24:00,64.8,56.7,30.06,NE,40,0.0,1.0,75,0.00,,,0.00,30,Wunderground v.1.15,2013-08-04 00:24:00,
2013-08-03 17:29:00,64.8,56.7,30.06,NE,40,0.0,1.0,75,0.00,,,0.00,28,Wunderground v.1.15,2013-08-04 00:29:00,
2013-08-03 17:34:00,64.8,56.7,30.06,NE,40,0.0,0.0,75,0.00,,,0.00,28,Wunderground v.1.15,2013-08-04 00:34:00,
2013-08-03 17:39:00,64.8,56.3,30.06,NE,40,0.0,2.0,74,0.00,,,0.00,28,Wunderground v.1.15,2013-08-04 00:39:00,
2013-08-03 17:45:00,64.8,56.3,30.06,NE,40,0.0,3.0,74,0.00,,,0.00,28,Wunderground v.1.15,2013-08-04 00:45:00,
2013-08-03 17:50:00,65.0,56.9,30.05,NE,40,0.0,3.0,75,0.00,,,0.00,28,Wunderground v.1.15,2013-08-04 00:50:00,
2013-08-03 17:55:00,65.0,56.9,30.05,NE,40,0.0,2.0,75,0.00,,,0.00,26,Wunderground v.1.15,2013-08-04 00:55:00,
2013-08-03 18:00:00,65.0,56.9,30.05,NE,40,1.0,2.0,75,0.00,,,0.00,26,Wunderground v.1.15,2013-08-04 01:00:00,
2013-08-03 18:04:00,65.0,56.5,30.05,NE,40,0.0,2.0,74,0.00,,,0.00,26,Wunderground v.1.15,2013-08-04 01:04:00,
2013-08-03 18:10:00,65.0,56.9,30.05,NE,40,0.0,2.0,75,0.00,,,0.00,26,Wunderground v.1.15,2013-08-04 01:10:00,
2013-08-03 18:15:00,65.0,56.9,30.05,NE,40,0.0,1.0,75,0.00,,,0.00,26,Wunderground v.1.15,2013-08-04 01:15:00,
2013-08-03 18:20:00,65.0,56.9,30.05,NE,40,0.0,2.0,75,0.00,,,0.00,25,Wunderground v.1.15,2013-08-04 01:20:00,
2013-08-03 18:25:00,65.0,56.9,30.05,NE,40,0.0,1.0,75,0.00,,,0.00,23,Wunderground v.1.15,2013-08-04 01:25:00,
2013-08-03 18:30:00,65.0,56.9,30.05,NE,40,0.0,1.0,75,0.00,,,0.00,21,Wunderground v.1.15,2013-08-04 01:30:00,
2013-08-03 18:35:00,65.0,57.2,30.05,NE,40,2.0,2.0,76,0.00,,,0.00,21,Wunderground v.1.15,2013-08-04 01:35:00,
2013-08-03 18:40:00,64.8,57.1,30.05,NE,40,0.0,2.0,76,0.00,,,0.00,21,Wunderground v.1.15,2013-08-04 01:40:00,
2013-08-03 18:45:00,64.8,57.1,30.05,NE,40,0.0,1.0,76,0.00,,,0.00,19,Wunderground v.1.15,2013-08-04 01:45:00,
2013-08-03 18:50:00,64.7,57.0,30.05,NE,40,0.0,1.0,76,0.00,,,0.00,19,Wunderground v.1.15,2013-08-04 01:50:00,
2013-08-03 18:55:00,64.7,57.3,30.05,NE,40,0.0,1.0,77,0.00,,,0.00,19,Wunderground v.1.15,2013-08-04 01:55:00,
2013-08-03 19:00:00,64.5,57.1,30.05,NE,40,0.0,1.0,77,0.00,,,0.00,19,Wunderground v.1.15,2013-08-04 02:00:00,
2013-08-03 19:04:00,64.3,57.3,30.05,NE,40,0.0,0.0,78,0.00,,,0.00,18,Wunderground v.1.15,2013-08-04 02:04:00,
2013-08-03 19:10:00,64.3,57.3,30.05,NE,40,0.0,0.0,78,0.00,,,0.00,18,Wunderground v.1.15,2013-08-04 02:10:00,
2013-08-03 19:15:00,64.2,57.2,30.05,NE,40,0.0,0.0,78,0.00,,,0.00,18,Wunderground v.1.15,2013-08-04 02:15:00,
2013-08-03 19:20:00,63.9,56.9,30.04,NE,40,0.0,0.0,78,0.00,,,0.00,16,Wunderground v.1.15,2013-08-04 02:20:00,
2013-08-03 19:25:00,63.9,56.9,30.04,NE,40,0.0,1.0,78,0.00,,,0.00,16,Wunderground v.1.15,2013-08-04 02:25:00,
2013-08-03 19:29:00,63.7,56.7,30.04,NE,40,0.0,0.0,78,0.00,,,0.00,16,Wunderground v.1.15,2013-08-04 02:29:00,
2013-08-03 19:35:00,63.5,56.9,30.04,NE,40,0.0,1.0,79,0.00,,,0.00,14,Wunderground v.1.15,2013-08-04 02:35:00,
2013-08-03 19:40:00,63.4,56.8,30.04,NE,40,0.0,1.0,79,0.00,,,0.00,14,Wunderground v.1.15,2013-08-04 02:40:00,
2013-08-03 19:44:00,63.4,56.8,30.04,NE,40,0.0,0.0,79,0.00,,,0.00,14,Wunderground v.1.15,2013-08-04 02:44:00,
2013-08-03 19:50:00,63.2,56.9,30.04,NE,40,0.0,0.0,80,0.00,,,0.00,12,Wunderground v.1.15,2013-08-04 02:50:00,
2013-08-03 19:55:00,63.1,56.8,30.04,NE,40,0.0,0.0,80,0.00,,,0.00,12,Wunderground v.1.15,2013-08-04 02:55:00,
2013-08-03 19:59:00,62.9,57.0,30.04,NE,40,0.0,0.0,81,0.00,,,0.00,11,Wunderground v.1.15,2013-08-04 02:59:00,
2013-08-03 20:05:00,62.9,57.0,30.04,NE,40,0.0,1.0,81,0.00,,,0.00,11,Wunderground v.1.15,2013-08-04 03:05:00,
2013-08-03 20:09:00,62.7,56.8,30.04,NE,40,0.0,0.0,81,0.00,,,0.00,9,Wunderground v.1.15,2013-08-04 03:09:00,
2013-08-03 20:10:00,62.7,56.8,30.04,NE,40,0.0,0.0,81,0.00,,,0.00,9,Wunderground v.1.15,2013-08-04 03:10:00,
2013-08-03 20:15:00,62.6,56.7,30.04,NE,40,0.0,1.0,81,0.00,,,0.00,9,Wunderground v.1.15,2013-08-04 03:15:00,
2013-08-03 20:20:00,62.4,56.5,30.04,NE,40,0.0,0.0,81,0.00,,,0.00,7,Wunderground v.1.15,2013-08-04 03:20:00,
2013-08-03 20:25:00,62.4,56.5,30.04,NE,40,0.0,0.0,81,0.00,,,0.00,5,Wunderground v.1.15,2013-08-04 03:25:00,
2013-08-03 20:30:00,62.3,56.7,30.04,NE,40,0.0,0.0,82,0.00,,,0.00,5,Wunderground v.1.15,2013-08-04 03:30:00,
2013-08-03 20:35:00,62.1,56.5,30.04,NE,40,0.0,1.0,82,0.00,,,0.00,0,Wunderground v.1.15,2013-08-04 03:35:00,
2013-08-03 20:40:00,62.0,56.4,30.04,NE,40,0.0,0.0,82,0.00,,,0.00,0,Wunderground v.1.15,2013-08-04 03:40:00,
2013-08-03 20:45:00,61.8,56.2,30.04,NE,40,0.0,0.0,82,0.00,,,0.00,0,Wunderground v.1.15,2013-08-04 03:45:00,
2013-08-03 20:50:00,61.6,56.4,30.05,NE,40,0.0,0.0,83,0.00,,,0.00,0,Wunderground v.1.15,2013-08-04 03:50:00,
2013-08-03 20:55:00,61.5,56.3,30.05,NE,40,1.0,2.0,83,0.00,,,0.00,0,Wunderground v.1.15,2013-08-04 03:55:00,
2013-08-03 21:00:00,61.3,56.4,30.05,NE,40,1.0,1.0,84,0.00,,,0.00,0,Wunderground v.1.15,2013-08-04 04:00:00,
2013-08-03 21:01:00,61.3,56.4,30.05,NE,40,2.0,2.0,84,0.00,,,0.00,0,Wunderground v.1.15,2013-08-04 04:01:00,
2013-08-03 21:06:00,61.2,56.3,30.05,SSE,150,1.0,2.0,84,0.00,,,0.00,0,Wunderground v.1.15,2013-08-04 04:06:00,
2013-08-03 21:11:00,61.0,56.5,30.05,SSE,150,1.0,2.0,85,0.00,,,0.00,0,Wunderground v.1.15,2013-08-04 04:11:00,
2013-08-03 21:16:00,60.9,56.7,30.05,SSE,150,1.0,2.0,86,0.00,,,0.00,0,Wunderground v.1.15,2013-08-04 04:16:00,
2013-08-03 21:21:00,60.7,56.5,30.05,SSE,150,0.0,2.0,86,0.00,,,0.00,0,Wunderground v.1.15,2013-08-04 04:21:00,
2013-08-03 21:26:00,60.7,56.5,30.05,SSE,150,0.0,2.0,86,0.00,,,0.00,0,Wunderground v.1.15,2013-08-04 04:26:00,
2013-08-03 21:31:00,60.5,56.6,30.05,SSE,150,0.0,1.0,87,0.00,,,0.00,0,Wunderground v.1.15,2013-08-04 04:31:00,
2013-08-03 21:36:00,60.5,56.6,30.05,SSE,150,0.0,1.0,87,0.00,,,0.00,0,Wunderground v.1.15,2013-08-04 04:36:00,
2013-08-03 21:41:00,60.5,56.6,30.05,SSE,150,0.0,0.0,87,0.00,,,0.00,0,Wunderground v.1.15,2013-08-04 04:41:00,
2013-08-03 21:46:00,60.4,56.5,30.05,SSE,150,0.0,0.0,87,0.00,,,0.00,0,Wunderground v.1.15,2013-08-04 04:46:00,
2013-08-03 21:51:00,60.4,56.5,30.05,SSE,150,0.0,0.0,87,0.00,,,0.00,0,Wunderground v.1.15,2013-08-04 04:51:00,
2013-08-03 21:56:00,60.2,56.3,30.05,SSE,150,0.0,2.0,87,0.00,,,0.00,0,Wunderground v.1.15,2013-08-04 04:56:00,
2013-08-03 22:02:00,60.1,56.2,30.05,SSE,150,0.0,0.0,87,0.00,,,0.00,0,Wunderground v.1.15,2013-08-04 05:02:00,
2013-08-03 22:07:00,60.1,56.2,30.05,SSE,150,0.0,1.0,87,0.00,,,0.00,0,Wunderground v.1.15,2013-08-04 05:07:00,
2013-08-03 22:12:00,59.9,56.3,30.05,SSE,150,0.0,1.0,88,0.00,,,0.00,0,Wunderground v.1.15,2013-08-04 05:12:00,
2013-08-03 22:17:00,59.9,56.3,30.05,SSE,150,0.0,1.0,88,0.00,,,0.00,0,Wunderground v.1.15,2013-08-04 05:17:00,
2013-08-03 22:22:00,59.8,56.2,30.05,SSE,150,0.0,0.0,88,0.00,,,0.00,0,Wunderground v.1.15,2013-08-04 05:22:00,
2013-08-03 22:27:00,59.6,56.0,30.05,SSE,150,0.0,1.0,88,0.00,,,0.00,0,Wunderground v.1.15,2013-08-04 05:27:00,
2013-08-03 22:32:00,59.6,56.0,30.05,ESE,120,0.0,1.0,88,0.00,,,0.00,0,Wunderground v.1.15,2013-08-04 05:32:00,
2013-08-03 22:37:00,59.6,56.0,30.05,ESE,120,0.0,1.0,88,0.00,,,0.00,0,Wunderground v.1.15,2013-08-04 05:37:00,
2013-08-03 22:42:00,59.6,56.0,30.05,ESE,120,0.0,0.0,88,0.00,,,0.00,0,Wunderground v.1.15,2013-08-04 05:42:00,
2013-08-03 22:47:00,59.6,56.0,30.05,ESE,118,0.0,2.0,88,0.00,,,0.00,0,Wunderground v.1.15,2013-08-04 05:47:00,
2013-08-03 22:52:00,59.6,56.0,30.05,ESE,118,0.0,2.0,88,0.00,,,0.00,0,Wunderground v.1.15,2013-08-04 05:52:00,
2013-08-03 22:57:00,59.8,56.2,30.05,ESE,118,0.0,2.0,88,0.00,,,0.00,0,Wunderground v.1.15,2013-08-04 05:57:00,
2013-08-03 23:02:00,59.8,56.2,30.05,South,175,0.0,2.0,88,0.00,,,0.00,0,Wunderground v.1.15,2013-08-04 06:02:00,
2013-08-03 23:07:00,59.9,56.0,30.05,South,175,0.0,2.0,87,0.00,,,0.00,0,Wunderground v.1.15,2013-08-04 06:07:00,
2013-08-03 23:12:00,59.9,56.0,30.05,South,175,0.0,1.0,87,0.00,,,0.00,0,Wunderground v.1.15,2013-08-04 06:12:00,
2013-08-03 23:17:00,60.1,56.2,30.05,South,175,0.0,2.0,87,0.00,,,0.00,0,Wunderground v.1.15,2013-08-04 06:17:00,
2013-08-03 23:22:00,60.1,56.2,30.05,South,175,0.0,1.0,87,0.00,,,0.00,0,Wunderground v.1.15,2013-08-04 06:22:00,
2013-08-03 23:27:00,60.1,56.2,30.05,South,175,0.0,1.0,87,0.00,,,0.00,0,Wunderground v.1.15,2013-08-04 06:27:00,
2013-08-03 23:32:00,59.9,55.7,30.05,South,175,0.0,1.0,86,0.00,,,0.00,0,Wunderground v.1.15,2013-08-04 06:32:00,
2013-08-03 23:37:00,59.9,55.7,30.05,South,175,0.0,1.0,86,0.00,,,0.00,0,Wunderground v.1.15,2013-08-04 06:37:00,
2013-08-03 23:42:00,59.8,55.6,30.05,South,175,0.0,1.0,86,0.00,,,0.00,0,Wunderground v.1.15,2013-08-04 06:42:00,
2013-08-03 23:47:00,59.8,55.6,30.05,South,175,0.0,1.0,86,0.00,,,0.00,0,Wunderground v.1.15,2013-08-04 06:47:00,
2013-08-03 23:52:00,59.6,55.4,30.05,South,175,0.0,1.0,86,0.00,,,0.00,0,Wunderground v.1.15,2013-08-04 06:52:00,
2013-08-03 23:57:00,59.6,55.4,30.05,South,175,0.0,1.0,86,0.00,,,0.00,0,Wunderground v.1.15,2013-08-04 06:57:00,